sensor_id;sensor_type;location;lat;lon;timestamp;P1;durP1;ratioP1;P2;durP2;ratioP2
28070;SDS011;15383;48.408;9.968;2023-11-19T04:01:42;3.25;;;2.30;;
28070;SDS011;15383;48.408;9.968;2023-11-19T04:04:08;4.93;;;2.85;;
28070;SDS011;15383;48.408;9.968;2023-11-19T04:06:33;3.47;;;2.38;;
28070;SDS011;15383;48.408;9.968;2023-11-19T04:08:59;3.65;;;2.60;;
28070;SDS011;15383;48.408;9.968;2023-11-19T04:11:24;3.22;;;2.60;;
28070;SDS011;15383;48.408;9.968;2023-11-19T04:13:50;3.30;;;2.33;;
28070;SDS011;15383;48.408;9.968;2023-11-19T04:16:15;2.83;;;2.00;;
28070;SDS011;15383;48.408;9.968;2023-11-19T04:18:41;2.65;;;2.05;;
28070;SDS011;15383;48.408;9.968;2023-11-19T04:21:07;3.50;;;2.25;;
28070;SDS011;15383;48.408;9.968;2023-11-19T04:23:32;2.65;;;2.05;;
28070;SDS011;15383;48.408;9.968;2023-11-19T04:26:01;2.88;;;2.13;;
28070;SDS011;15383;48.408;9.968;2023-11-19T04:28:27;3.50;;;2.72;;
28070;SDS011;15383;48.408;9.968;2023-11-19T04:30:53;2.20;;;1.83;;
28070;SDS011;15383;48.408;9.968;2023-11-19T04:33:19;2.13;;;1.98;;
28070;SDS011;15383;48.408;9.968;2023-11-19T04:35:44;2.55;;;2.00;;
28070;SDS011;15383;48.408;9.968;2023-11-19T04:38:10;3.13;;;2.38;;
28070;SDS011;15383;48.408;9.968;2023-11-19T04:40:36;2.50;;;2.28;;
28070;SDS011;15383;48.408;9.968;2023-11-19T04:43:01;2.75;;;2.00;;
28070;SDS011;15383;48.408;9.968;2023-11-19T04:45:27;3.13;;;2.08;;
28070;SDS011;15383;48.408;9.968;2023-11-19T04:47:52;3.05;;;2.17;;
28070;SDS011;15383;48.408;9.968;2023-11-19T04:50:18;2.40;;;1.85;;
28070;SDS011;15383;48.408;9.968;2023-11-19T04:52:43;3.10;;;2.20;;
28070;SDS011;15383;48.408;9.968;2023-11-19T04:55:10;2.72;;;2.00;;
28070;SDS011;15383;48.408;9.968;2023-11-19T04:57:39;2.63;;;2.00;;
28070;SDS011;15383;48.408;9.968;2023-11-19T05:00:05;2.55;;;2.10;;
28070;SDS011;15383;48.408;9.968;2023-11-19T05:02:32;4.40;;;2.78;;
28070;SDS011;15383;48.408;9.968;2023-11-19T05:04:59;3.53;;;2.22;;
28070;SDS011;15383;48.408;9.968;2023-11-19T05:07:24;2.47;;;2.17;;
28070;SDS011;15383;48.408;9.968;2023-11-19T05:09:50;2.95;;;2.47;;
28070;SDS011;15383;48.408;9.968;2023-11-19T05:12:15;3.85;;;2.38;;
28070;SDS011;15383;48.408;9.968;2023-11-19T05:14:41;3.70;;;2.88;;
28070;SDS011;15383;48.408;9.968;2023-11-19T05:17:13;3.97;;;2.72;;
28070;SDS011;15383;48.408;9.968;2023-11-19T05:19:38;4.28;;;3.13;;
28070;SDS011;15383;48.408;9.968;2023-11-19T05:22:04;4.22;;;2.95;;
28070;SDS011;15383;48.408;9.968;2023-11-19T05:24:31;5.65;;;3.40;;
28070;SDS011;15383;48.408;9.968;2023-11-19T05:26:56;3.45;;;2.67;;
28070;SDS011;15383;48.408;9.968;2023-11-19T05:29:23;4.25;;;2.92;;
28070;SDS011;15383;48.408;9.968;2023-11-19T05:31:49;4.35;;;3.40;;
28070;SDS011;15383;48.408;9.968;2023-11-19T05:34:14;4.82;;;3.38;;
28070;SDS011;15383;48.408;9.968;2023-11-19T05:36:40;5.03;;;3.30;;
28070;SDS011;15383;48.408;9.968;2023-11-19T05:39:06;5.53;;;3.33;;
28070;SDS011;15383;48.408;9.968;2023-11-19T05:41:31;5.28;;;3.70;;
28070;SDS011;15383;48.408;9.968;2023-11-19T05:43:57;6.13;;;3.65;;
28070;SDS011;15383;48.408;9.968;2023-11-19T05:46:22;5.75;;;3.80;;
28070;SDS011;15383;48.408;9.968;2023-11-19T05:48:50;5.30;;;3.50;;
28070;SDS011;15383;48.408;9.968;2023-11-19T05:51:16;5.07;;;2.72;;
28070;SDS011;15383;48.408;9.968;2023-11-19T05:53:42;5.05;;;3.55;;
28070;SDS011;15383;48.408;9.968;2023-11-19T05:56:08;4.63;;;3.55;;
28070;SDS011;15383;48.408;9.968;2023-11-19T05:58:34;4.50;;;3.15;;
28070;SDS011;15383;48.408;9.968;2023-11-19T06:01:01;3.72;;;2.90;;
28070;SDS011;15383;48.408;9.968;2023-11-19T06:03:26;4.50;;;2.90;;
28070;SDS011;15383;48.408;9.968;2023-11-19T06:05:52;8.18;;;3.65;;
28070;SDS011;15383;48.408;9.968;2023-11-19T06:08:19;4.90;;;3.42;;
28070;SDS011;15383;48.408;9.968;2023-11-19T06:10:46;6.47;;;3.63;;
28070;SDS011;15383;48.408;9.968;2023-11-19T06:13:12;3.40;;;2.97;;
28070;SDS011;15383;48.408;9.968;2023-11-19T06:15:40;6.30;;;3.70;;
28070;SDS011;15383;48.408;9.968;2023-11-19T06:18:06;3.63;;;2.95;;
28070;SDS011;15383;48.408;9.968;2023-11-19T06:20:33;6.00;;;3.80;;
28070;SDS011;15383;48.408;9.968;2023-11-19T06:22:59;4.35;;;3.10;;
28070;SDS011;15383;48.408;9.968;2023-11-19T06:25:25;4.93;;;3.55;;
28070;SDS011;15383;48.408;9.968;2023-11-19T06:27:51;6.55;;;4.07;;
28070;SDS011;15383;48.408;9.968;2023-11-19T06:30:17;4.47;;;3.67;;
28070;SDS011;15383;48.408;9.968;2023-11-19T06:32:43;6.68;;;3.67;;
28070;SDS011;15383;48.408;9.968;2023-11-19T06:35:08;5.38;;;3.47;;
28070;SDS011;15383;48.408;9.968;2023-11-19T06:37:34;6.40;;;4.15;;
28070;SDS011;15383;48.408;9.968;2023-11-19T06:40:00;5.30;;;3.88;;
28070;SDS011;15383;48.408;9.968;2023-11-19T06:42:26;5.03;;;3.35;;
28070;SDS011;15383;48.408;9.968;2023-11-19T06:44:52;5.80;;;3.45;;
28070;SDS011;15383;48.408;9.968;2023-11-19T06:47:17;3.88;;;3.30;;
28070;SDS011;15383;48.408;9.968;2023-11-19T06:49:43;6.05;;;3.75;;
28070;SDS011;15383;48.408;9.968;2023-11-19T06:52:09;5.10;;;4.10;;
28070;SDS011;15383;48.408;9.968;2023-11-19T06:54:35;4.00;;;3.08;;
28070;SDS011;15383;48.408;9.968;2023-11-19T06:57:01;5.10;;;3.42;;
28070;SDS011;15383;48.408;9.968;2023-11-19T06:59:28;4.18;;;3.15;;
28070;SDS011;15383;48.408;9.968;2023-11-19T07:01:54;5.20;;;3.63;;
28070;SDS011;15383;48.408;9.968;2023-11-19T07:04:20;5.53;;;3.28;;
28070;SDS011;15383;48.408;9.968;2023-11-19T07:06:46;7.32;;;4.05;;
28070;SDS011;15383;48.408;9.968;2023-11-19T07:09:13;7.18;;;3.88;;
28070;SDS011;15383;48.408;9.968;2023-11-19T07:11:39;4.82;;;3.33;;
28070;SDS011;15383;48.408;9.968;2023-11-19T07:14:05;5.28;;;3.65;;
28070;SDS011;15383;48.408;9.968;2023-11-19T07:16:32;4.72;;;3.33;;
28070;SDS011;15383;48.408;9.968;2023-11-19T07:18:59;4.80;;;3.60;;
28070;SDS011;15383;48.408;9.968;2023-11-19T07:21:26;4.82;;;3.20;;
28070;SDS011;15383;48.408;9.968;2023-11-19T07:23:53;4.13;;;3.17;;
28070;SDS011;15383;48.408;9.968;2023-11-19T07:26:19;5.32;;;3.45;;
28070;SDS011;15383;48.408;9.968;2023-11-19T07:28:45;6.72;;;3.70;;
28070;SDS011;15383;48.408;9.968;2023-11-19T07:31:10;4.85;;;3.40;;
28070;SDS011;15383;48.408;9.968;2023-11-19T07:33:37;5.60;;;3.33;;
28070;SDS011;15383;48.408;9.968;2023-11-19T07:36:07;4.15;;;3.33;;
28070;SDS011;15383;48.408;9.968;2023-11-19T07:38:33;5.80;;;3.95;;
28070;SDS011;15383;48.408;9.968;2023-11-19T07:40:59;7.18;;;4.05;;
28070;SDS011;15383;48.408;9.968;2023-11-19T07:43:25;6.35;;;3.50;;
28070;SDS011;15383;48.408;9.968;2023-11-19T07:45:50;8.20;;;4.20;;
28070;SDS011;15383;48.408;9.968;2023-11-19T07:48:16;7.65;;;3.97;;
28070;SDS011;15383;48.408;9.968;2023-11-19T07:50:43;5.63;;;3.67;;
28070;SDS011;15383;48.408;9.968;2023-11-19T07:53:08;8.38;;;3.80;;
28070;SDS011;15383;48.408;9.968;2023-11-19T07:55:34;5.70;;;4.03;;
28070;SDS011;15383;48.408;9.968;2023-11-19T07:57:59;5.30;;;3.97;;
28070;SDS011;15383;48.408;9.968;2023-11-19T08:00:26;6.43;;;3.78;;
28070;SDS011;15383;48.408;9.968;2023-11-19T08:02:51;7.65;;;4.50;;
28070;SDS011;15383;48.408;9.968;2023-11-19T08:05:17;6.68;;;3.60;;
28070;SDS011;15383;48.408;9.968;2023-11-19T08:07:43;7.72;;;3.80;;
28070;SDS011;15383;48.408;9.968;2023-11-19T08:10:08;5.70;;;4.50;;
28070;SDS011;15383;48.408;9.968;2023-11-19T08:12:35;7.38;;;4.07;;
28070;SDS011;15383;48.408;9.968;2023-11-19T08:15:04;5.18;;;3.97;;
28070;SDS011;15383;48.408;9.968;2023-11-19T08:17:30;5.20;;;4.28;;
28070;SDS011;15383;48.408;9.968;2023-11-19T08:19:55;6.70;;;4.38;;
28070;SDS011;15383;48.408;9.968;2023-11-19T08:22:21;5.85;;;3.92;;
28070;SDS011;15383;48.408;9.968;2023-11-19T08:24:47;6.55;;;3.85;;
28070;SDS011;15383;48.408;9.968;2023-11-19T08:27:13;6.85;;;4.28;;
28070;SDS011;15383;48.408;9.968;2023-11-19T08:29:39;6.85;;;4.15;;
28070;SDS011;15383;48.408;9.968;2023-11-19T08:32:05;4.72;;;3.75;;
28070;SDS011;15383;48.408;9.968;2023-11-19T08:34:31;7.22;;;4.32;;
28070;SDS011;15383;48.408;9.968;2023-11-19T08:36:57;6.15;;;4.18;;
28070;SDS011;15383;48.408;9.968;2023-11-19T08:39:23;5.45;;;3.65;;
28070;SDS011;15383;48.408;9.968;2023-11-19T08:41:49;6.75;;;3.70;;
28070;SDS011;15383;48.408;9.968;2023-11-19T08:44:15;6.28;;;4.45;;
28070;SDS011;15383;48.408;9.968;2023-11-19T08:46:50;5.65;;;4.03;;
28070;SDS011;15383;48.408;9.968;2023-11-19T08:49:16;6.25;;;3.60;;
28070;SDS011;15383;48.408;9.968;2023-11-19T08:51:41;5.28;;;3.60;;
28070;SDS011;15383;48.408;9.968;2023-11-19T08:54:07;4.65;;;3.58;;
28070;SDS011;15383;48.408;9.968;2023-11-19T08:56:33;5.25;;;3.67;;
28070;SDS011;15383;48.408;9.968;2023-11-19T08:59:00;4.53;;;3.40;;
28070;SDS011;15383;48.408;9.968;2023-11-19T09:01:26;4.80;;;3.42;;
28070;SDS011;15383;48.408;9.968;2023-11-19T09:03:51;5.20;;;3.60;;
28070;SDS011;15383;48.408;9.968;2023-11-19T09:06:17;6.55;;;3.40;;
28070;SDS011;15383;48.408;9.968;2023-11-19T09:08:43;5.22;;;3.83;;
28070;SDS011;15383;48.408;9.968;2023-11-19T09:11:08;5.07;;;3.13;;
28070;SDS011;15383;48.408;9.968;2023-11-19T09:13:34;4.68;;;3.25;;
28070;SDS011;15383;48.408;9.968;2023-11-19T09:16:00;5.15;;;3.75;;
28070;SDS011;15383;48.408;9.968;2023-11-19T09:18:28;4.25;;;3.03;;
28070;SDS011;15383;48.408;9.968;2023-11-19T09:20:54;8.95;;;3.90;;
28070;SDS011;15383;48.408;9.968;2023-11-19T09:23:19;4.65;;;3.35;;
28070;SDS011;15383;48.408;9.968;2023-11-19T09:25:45;4.20;;;3.22;;
28070;SDS011;15383;48.408;9.968;2023-11-19T09:28:11;6.72;;;3.35;;
28070;SDS011;15383;48.408;9.968;2023-11-19T09:30:38;5.05;;;3.25;;
28070;SDS011;15383;48.408;9.968;2023-11-19T09:33:03;4.90;;;3.28;;
28070;SDS011;15383;48.408;9.968;2023-11-19T09:35:29;4.15;;;2.97;;
28070;SDS011;15383;48.408;9.968;2023-11-19T09:37:54;4.53;;;2.92;;
28070;SDS011;15383;48.408;9.968;2023-11-19T09:40:20;3.85;;;2.90;;
28070;SDS011;15383;48.408;9.968;2023-11-19T09:42:45;4.57;;;3.28;;
28070;SDS011;15383;48.408;9.968;2023-11-19T09:45:15;3.45;;;2.75;;
28070;SDS011;15383;48.408;9.968;2023-11-19T09:47:43;4.32;;;2.97;;
28070;SDS011;15383;48.408;9.968;2023-11-19T09:50:11;6.22;;;3.47;;
28070;SDS011;15383;48.408;9.968;2023-11-19T09:52:43;5.03;;;3.30;;
28070;SDS011;15383;48.408;9.968;2023-11-19T09:55:10;4.30;;;3.20;;
28070;SDS011;15383;48.408;9.968;2023-11-19T09:57:35;4.43;;;3.45;;
28070;SDS011;15383;48.408;9.968;2023-11-19T10:00:04;3.28;;;2.88;;
28070;SDS011;15383;48.408;9.968;2023-11-19T10:02:33;3.70;;;2.83;;
28070;SDS011;15383;48.408;9.968;2023-11-19T10:05:01;4.20;;;3.05;;
28070;SDS011;15383;48.408;9.968;2023-11-19T10:07:30;5.20;;;3.03;;
28070;SDS011;15383;48.408;9.968;2023-11-19T10:09:57;4.95;;;2.63;;
28070;SDS011;15383;48.408;9.968;2023-11-19T10:12:25;3.35;;;2.85;;
28070;SDS011;15383;48.408;9.968;2023-11-19T10:14:51;4.13;;;3.38;;
28070;SDS011;15383;48.408;9.968;2023-11-19T10:17:19;4.38;;;2.85;;
28070;SDS011;15383;48.408;9.968;2023-11-19T10:19:45;3.13;;;2.40;;
28070;SDS011;15383;48.408;9.968;2023-11-19T10:22:10;4.72;;;3.20;;
28070;SDS011;15383;48.408;9.968;2023-11-19T10:24:36;4.03;;;2.55;;
28070;SDS011;15383;48.408;9.968;2023-11-19T10:27:06;2.90;;;2.38;;
28070;SDS011;15383;48.408;9.968;2023-11-19T10:29:35;3.50;;;2.60;;
28070;SDS011;15383;48.408;9.968;2023-11-19T10:32:04;3.03;;;2.42;;
28070;SDS011;15383;48.408;9.968;2023-11-19T10:34:30;2.60;;;2.05;;
28070;SDS011;15383;48.408;9.968;2023-11-19T10:36:55;3.45;;;2.38;;
28070;SDS011;15383;48.408;9.968;2023-11-19T10:39:21;2.38;;;2.17;;
28070;SDS011;15383;48.408;9.968;2023-11-19T10:41:48;3.60;;;2.00;;
28070;SDS011;15383;48.408;9.968;2023-11-19T10:44:30;2.33;;;1.92;;
28070;SDS011;15383;48.408;9.968;2023-11-19T10:47:00;3.63;;;2.30;;
28070;SDS011;15383;48.408;9.968;2023-11-19T10:49:26;2.22;;;2.03;;
28070;SDS011;15383;48.408;9.968;2023-11-19T10:51:51;3.55;;;2.20;;
28070;SDS011;15383;48.408;9.968;2023-11-19T10:54:18;2.35;;;2.00;;
28070;SDS011;15383;48.408;9.968;2023-11-19T10:56:45;8.30;;;2.38;;
28070;SDS011;15383;48.408;9.968;2023-11-19T10:59:18;2.40;;;2.00;;
28070;SDS011;15383;48.408;9.968;2023-11-19T11:01:46;2.30;;;1.40;;
28070;SDS011;15383;48.408;9.968;2023-11-19T11:04:16;7.40;;;1.50;;
28070;SDS011;15383;48.408;9.968;2023-11-19T11:06:47;2.60;;;1.20;;
28070;SDS011;15383;48.408;9.968;2023-11-19T11:09:13;5.15;;;1.48;;
28070;SDS011;15383;48.408;9.968;2023-11-19T11:11:40;6.65;;;1.27;;
28070;SDS011;15383;48.408;9.968;2023-11-19T11:14:06;4.07;;;1.45;;
28070;SDS011;15383;48.408;9.968;2023-11-19T11:16:34;1.10;;;0.90;;
28070;SDS011;15383;48.408;9.968;2023-11-19T11:19:02;1.88;;;1.10;;
28070;SDS011;15383;48.408;9.968;2023-11-19T11:21:29;1.00;;;0.90;;
28070;SDS011;15383;48.408;9.968;2023-11-19T11:39:34;0.88;;;0.82;;
28070;SDS011;15383;48.408;9.968;2023-11-19T11:42:46;0.90;;;0.90;;
28070;SDS011;15383;48.408;9.968;2023-11-19T11:50:10;1.05;;;0.95;;
28070;SDS011;15383;48.408;9.968;2023-11-19T11:57:59;1.23;;;1.10;;
28070;SDS011;15383;48.408;9.968;2023-11-19T12:00:36;1.63;;;1.20;;
28070;SDS011;15383;48.408;9.968;2023-11-19T12:03:06;1.75;;;1.15;;
28070;SDS011;15383;48.408;9.968;2023-11-19T12:05:33;0.80;;;0.80;;
28070;SDS011;15383;48.408;9.968;2023-11-19T12:08:03;1.58;;;0.95;;
28070;SDS011;15383;48.408;9.968;2023-11-19T12:10:32;0.93;;;0.88;;
28070;SDS011;15383;48.408;9.968;2023-11-19T12:13:04;1.10;;;0.98;;
28070;SDS011;15383;48.408;9.968;2023-11-19T12:15:32;2.92;;;1.00;;
28070;SDS011;15383;48.408;9.968;2023-11-19T12:17:58;5.72;;;2.20;;
28070;SDS011;15383;48.408;9.968;2023-11-19T12:20:24;5.28;;;1.33;;
28070;SDS011;15383;48.408;9.968;2023-11-19T12:22:51;3.17;;;1.20;;
28070;SDS011;15383;48.408;9.968;2023-11-19T12:25:18;3.35;;;1.00;;
28070;SDS011;15383;48.408;9.968;2023-11-19T12:27:49;2.08;;;1.48;;
28070;SDS011;15383;48.408;9.968;2023-11-19T12:30:25;0.88;;;0.88;;
28070;SDS011;15383;48.408;9.968;2023-11-19T12:32:51;1.23;;;0.90;;
28070;SDS011;15383;48.408;9.968;2023-11-19T12:35:18;2.92;;;1.10;;
28070;SDS011;15383;48.408;9.968;2023-11-19T12:37:47;3.60;;;1.40;;
28070;SDS011;15383;48.408;9.968;2023-11-19T12:40:15;2.00;;;1.40;;
28070;SDS011;15383;48.408;9.968;2023-11-19T12:42:42;3.70;;;1.27;;
28070;SDS011;15383;48.408;9.968;2023-11-19T12:45:08;5.85;;;1.65;;
28070;SDS011;15383;48.408;9.968;2023-11-19T12:47:37;1.98;;;1.15;;
28070;SDS011;15383;48.408;9.968;2023-11-19T12:50:05;2.33;;;1.15;;
28070;SDS011;15383;48.408;9.968;2023-11-19T12:52:31;2.72;;;1.45;;
28070;SDS011;15383;48.408;9.968;2023-11-19T12:54:57;2.35;;;1.20;;
28070;SDS011;15383;48.408;9.968;2023-11-19T12:57:39;1.27;;;1.00;;
28070;SDS011;15383;48.408;9.968;2023-11-19T13:00:05;1.70;;;1.23;;
28070;SDS011;15383;48.408;9.968;2023-11-19T13:02:47;4.88;;;2.15;;
28070;SDS011;15383;48.408;9.968;2023-11-19T13:05:24;1.95;;;1.60;;
28070;SDS011;15383;48.408;9.968;2023-11-19T13:07:57;4.85;;;2.13;;
28070;SDS011;15383;48.408;9.968;2023-11-19T13:10:30;6.88;;;1.98;;
28070;SDS011;15383;48.408;9.968;2023-11-19T13:13:21;4.20;;;1.85;;
28070;SDS011;15383;48.408;9.968;2023-11-19T13:15:46;2.25;;;1.50;;
28070;SDS011;15383;48.408;9.968;2023-11-19T13:18:12;5.15;;;1.63;;
28070;SDS011;15383;48.408;9.968;2023-11-19T13:20:39;3.70;;;1.83;;
28070;SDS011;15383;48.408;9.968;2023-11-19T13:23:05;1.88;;;1.30;;
28070;SDS011;15383;48.408;9.968;2023-11-19T13:28:00;1.55;;;1.08;;
28070;SDS011;15383;48.408;9.968;2023-11-19T13:30:26;2.10;;;1.38;;
28070;SDS011;15383;48.408;9.968;2023-11-19T13:32:52;3.45;;;1.90;;
28070;SDS011;15383;48.408;9.968;2023-11-19T13:35:20;2.30;;;1.27;;
28070;SDS011;15383;48.408;9.968;2023-11-19T13:37:47;1.20;;;1.08;;
28070;SDS011;15383;48.408;9.968;2023-11-19T13:40:12;2.03;;;1.40;;
28070;SDS011;15383;48.408;9.968;2023-11-19T13:42:41;1.23;;;1.10;;
28070;SDS011;15383;48.408;9.968;2023-11-19T13:47:38;4.72;;;1.23;;
28070;SDS011;15383;48.408;9.968;2023-11-19T13:50:06;1.33;;;0.90;;
28070;SDS011;15383;48.408;9.968;2023-11-19T13:52:39;1.52;;;1.15;;
28070;SDS011;15383;48.408;9.968;2023-11-19T13:55:07;2.22;;;1.13;;
28070;SDS011;15383;48.408;9.968;2023-11-19T13:57:34;1.05;;;0.95;;
28070;SDS011;15383;48.408;9.968;2023-11-19T14:00:01;2.28;;;1.20;;
28070;SDS011;15383;48.408;9.968;2023-11-19T14:02:31;1.30;;;1.20;;
28070;SDS011;15383;48.408;9.968;2023-11-19T14:04:56;2.28;;;1.15;;
28070;SDS011;15383;48.408;9.968;2023-11-19T14:07:22;0.98;;;0.93;;
28070;SDS011;15383;48.408;9.968;2023-11-19T14:09:47;30.58;;;2.95;;
28070;SDS011;15383;48.408;9.968;2023-11-19T14:12:13;2.35;;;1.48;;
28070;SDS011;15383;48.408;9.968;2023-11-19T14:14:39;4.80;;;1.65;;
28070;SDS011;15383;48.408;9.968;2023-11-19T14:17:04;6.32;;;1.52;;
28070;SDS011;15383;48.408;9.968;2023-11-19T14:19:30;5.18;;;1.98;;
28070;SDS011;15383;48.408;9.968;2023-11-19T14:21:55;38.85;;;6.93;;
28070;SDS011;15383;48.408;9.968;2023-11-19T14:24:21;14.00;;;5.72;;
28070;SDS011;15383;48.408;9.968;2023-11-19T14:26:47;17.98;;;6.15;;
28070;SDS011;15383;48.408;9.968;2023-11-19T14:29:13;16.60;;;6.65;;
28070;SDS011;15383;48.408;9.968;2023-11-19T14:31:39;16.67;;;7.93;;
28070;SDS011;15383;48.408;9.968;2023-11-19T14:34:05;24.17;;;8.07;;
28070;SDS011;15383;48.408;9.968;2023-11-19T14:36:30;17.42;;;7.07;;
28070;SDS011;15383;48.408;9.968;2023-11-19T14:38:56;19.15;;;7.97;;
28070;SDS011;15383;48.408;9.968;2023-11-19T14:41:23;17.98;;;8.02;;
28070;SDS011;15383;48.408;9.968;2023-11-19T14:43:49;15.98;;;5.70;;
28070;SDS011;15383;48.408;9.968;2023-11-19T14:46:15;10.48;;;5.07;;
28070;SDS011;15383;48.408;9.968;2023-11-19T14:48:40;13.77;;;5.10;;
28070;SDS011;15383;48.408;9.968;2023-11-19T14:51:06;11.88;;;4.50;;
28070;SDS011;15383;48.408;9.968;2023-11-19T14:53:31;11.85;;;5.38;;
28070;SDS011;15383;48.408;9.968;2023-11-19T14:55:58;30.50;;;6.07;;
28070;SDS011;15383;48.408;9.968;2023-11-19T14:58:23;14.45;;;5.25;;
28070;SDS011;15383;48.408;9.968;2023-11-19T15:00:50;19.23;;;5.70;;
28070;SDS011;15383;48.408;9.968;2023-11-19T15:03:16;9.55;;;4.55;;
28070;SDS011;15383;48.408;9.968;2023-11-19T15:05:44;9.10;;;2.80;;
28070;SDS011;15383;48.408;9.968;2023-11-19T15:08:10;2.30;;;2.10;;
28070;SDS011;15383;48.408;9.968;2023-11-19T15:10:36;1.63;;;1.50;;
28070;SDS011;15383;48.408;9.968;2023-11-19T15:13:02;1.90;;;1.50;;
28070;SDS011;15383;48.408;9.968;2023-11-19T15:15:28;1.35;;;1.25;;
28070;SDS011;15383;48.408;9.968;2023-11-19T15:17:54;1.30;;;1.20;;
28070;SDS011;15383;48.408;9.968;2023-11-19T15:20:20;2.53;;;1.67;;
28070;SDS011;15383;48.408;9.968;2023-11-19T15:22:46;4.07;;;2.20;;
28070;SDS011;15383;48.408;9.968;2023-11-19T15:25:12;2.42;;;1.85;;
28070;SDS011;15383;48.408;9.968;2023-11-19T15:27:38;1.83;;;1.50;;
28070;SDS011;15383;48.408;9.968;2023-11-19T15:30:04;1.80;;;1.63;;
28070;SDS011;15383;48.408;9.968;2023-11-19T15:32:30;2.75;;;1.40;;
28070;SDS011;15383;48.408;9.968;2023-11-19T15:34:57;1.40;;;1.30;;
28070;SDS011;15383;48.408;9.968;2023-11-19T15:37:23;1.58;;;1.20;;
28070;SDS011;15383;48.408;9.968;2023-11-19T15:39:49;1.33;;;1.23;;
28070;SDS011;15383;48.408;9.968;2023-11-19T15:42:16;1.42;;;1.20;;
28070;SDS011;15383;48.408;9.968;2023-11-19T15:44:42;1.40;;;1.30;;
28070;SDS011;15383;48.408;9.968;2023-11-19T15:47:08;1.30;;;1.20;;
28070;SDS011;15383;48.408;9.968;2023-11-19T15:49:34;1.45;;;1.33;;
28070;SDS011;15383;48.408;9.968;2023-11-19T15:52:01;1.30;;;1.20;;
28070;SDS011;15383;48.408;9.968;2023-11-19T15:54:26;2.38;;;1.20;;
28070;SDS011;15383;48.408;9.968;2023-11-19T15:56:52;0.90;;;0.82;;
28070;SDS011;15383;48.408;9.968;2023-11-19T15:59:17;1.30;;;1.20;;
28070;SDS011;15383;48.408;9.968;2023-11-19T16:01:43;3.63;;;1.10;;
28070;SDS011;15383;48.408;9.968;2023-11-19T16:04:08;1.38;;;1.20;;
28070;SDS011;15383;48.408;9.968;2023-11-19T16:06:34;1.80;;;1.52;;
28070;SDS011;15383;48.408;9.968;2023-11-19T16:09:00;4.38;;;1.45;;
28070;SDS011;15383;48.408;9.968;2023-11-19T16:11:27;1.35;;;1.10;;
28070;SDS011;15383;48.408;9.968;2023-11-19T16:13:52;2.22;;;1.48;;
28070;SDS011;15383;48.408;9.968;2023-11-19T16:16:18;1.50;;;1.20;;
28070;SDS011;15383;48.408;9.968;2023-11-19T16:18:44;1.35;;;1.25;;
28070;SDS011;15383;48.408;9.968;2023-11-19T16:21:09;1.40;;;1.30;;
28070;SDS011;15383;48.408;9.968;2023-11-19T16:23:35;1.63;;;1.20;;
28070;SDS011;15383;48.408;9.968;2023-11-19T16:26:00;1.50;;;1.20;;
28070;SDS011;15383;48.408;9.968;2023-11-19T16:28:26;2.97;;;1.45;;
28070;SDS011;15383;48.408;9.968;2023-11-19T16:30:52;2.33;;;1.20;;
28070;SDS011;15383;48.408;9.968;2023-11-19T16:33:17;1.85;;;1.30;;
28070;SDS011;15383;48.408;9.968;2023-11-19T16:35:43;1.48;;;1.10;;
28070;SDS011;15383;48.408;9.968;2023-11-19T16:38:09;2.28;;;1.35;;
28070;SDS011;15383;48.408;9.968;2023-11-19T16:40:34;3.10;;;1.30;;
28070;SDS011;15383;48.408;9.968;2023-11-19T16:43:04;2.35;;;1.40;;
28070;SDS011;15383;48.408;9.968;2023-11-19T16:45:32;3.80;;;1.67;;
28070;SDS011;15383;48.408;9.968;2023-11-19T16:47:58;2.50;;;1.65;;
28070;SDS011;15383;48.408;9.968;2023-11-19T16:50:26;3.67;;;1.67;;
28070;SDS011;15383;48.408;9.968;2023-11-19T16:52:52;2.70;;;1.38;;
28070;SDS011;15383;48.408;9.968;2023-11-19T16:55:18;1.67;;;1.30;;
28070;SDS011;15383;48.408;9.968;2023-11-19T16:57:43;1.60;;;1.23;;
28070;SDS011;15383;48.408;9.968;2023-11-19T17:00:09;1.35;;;1.17;;
28070;SDS011;15383;48.408;9.968;2023-11-19T17:02:36;1.48;;;1.08;;
28070;SDS011;15383;48.408;9.968;2023-11-19T17:05:03;1.83;;;1.20;;
28070;SDS011;15383;48.408;9.968;2023-11-19T17:07:29;2.47;;;1.17;;
28070;SDS011;15383;48.408;9.968;2023-11-19T17:09:55;1.60;;;1.50;;
28070;SDS011;15383;48.408;9.968;2023-11-19T17:12:20;4.00;;;1.20;;
28070;SDS011;15383;48.408;9.968;2023-11-19T17:14:46;1.95;;;1.10;;
28070;SDS011;15383;48.408;9.968;2023-11-19T17:17:11;1.00;;;1.00;;
28070;SDS011;15383;48.408;9.968;2023-11-19T17:19:37;1.98;;;1.55;;
28070;SDS011;15383;48.408;9.968;2023-11-19T17:22:04;1.75;;;1.20;;
28070;SDS011;15383;48.408;9.968;2023-11-19T17:24:31;1.55;;;1.30;;
28070;SDS011;15383;48.408;9.968;2023-11-19T17:26:56;1.13;;;1.02;;
28070;SDS011;15383;48.408;9.968;2023-11-19T17:29:22;1.92;;;1.40;;
28070;SDS011;15383;48.408;9.968;2023-11-19T17:31:47;2.25;;;1.50;;
28070;SDS011;15383;48.408;9.968;2023-11-19T17:34:13;3.65;;;1.40;;
28070;SDS011;15383;48.408;9.968;2023-11-19T17:36:38;1.75;;;1.48;;
28070;SDS011;15383;48.408;9.968;2023-11-19T17:39:04;1.55;;;1.42;;
28070;SDS011;15383;48.408;9.968;2023-11-19T17:41:30;4.88;;;1.50;;
28070;SDS011;15383;48.408;9.968;2023-11-19T17:43:55;3.35;;;1.50;;
28070;SDS011;15383;48.408;9.968;2023-11-19T17:46:22;1.77;;;1.63;;
28070;SDS011;15383;48.408;9.968;2023-11-19T17:48:48;1.60;;;1.38;;
28070;SDS011;15383;48.408;9.968;2023-11-19T17:51:14;2.65;;;2.00;;
28070;SDS011;15383;48.408;9.968;2023-11-19T17:53:42;2.33;;;2.13;;
28070;SDS011;15383;48.408;9.968;2023-11-19T17:56:08;2.25;;;1.98;;
28070;SDS011;15383;48.408;9.968;2023-11-19T17:58:33;3.97;;;2.10;;
28070;SDS011;15383;48.408;9.968;2023-11-19T18:00:59;2.17;;;1.67;;
28070;SDS011;15383;48.408;9.968;2023-11-19T18:03:25;3.10;;;2.05;;
28070;SDS011;15383;48.408;9.968;2023-11-19T18:05:51;2.20;;;2.00;;
28070;SDS011;15383;48.408;9.968;2023-11-19T18:08:16;2.85;;;2.03;;
28070;SDS011;15383;48.408;9.968;2023-11-19T18:10:47;3.33;;;2.10;;
28070;SDS011;15383;48.408;9.968;2023-11-19T18:13:13;2.65;;;1.90;;
28070;SDS011;15383;48.408;9.968;2023-11-19T18:15:39;3.20;;;2.10;;
28070;SDS011;15383;48.408;9.968;2023-11-19T18:18:05;2.42;;;1.98;;
28070;SDS011;15383;48.408;9.968;2023-11-19T18:20:30;3.30;;;1.80;;
28070;SDS011;15383;48.408;9.968;2023-11-19T18:22:56;2.25;;;1.52;;
28070;SDS011;15383;48.408;9.968;2023-11-19T18:25:22;2.75;;;1.63;;
28070;SDS011;15383;48.408;9.968;2023-11-19T18:27:47;2.40;;;1.50;;
28070;SDS011;15383;48.408;9.968;2023-11-19T18:30:13;1.88;;;1.55;;
28070;SDS011;15383;48.408;9.968;2023-11-19T18:32:40;1.95;;;1.75;;
28070;SDS011;15383;48.408;9.968;2023-11-19T18:35:09;2.77;;;1.77;;
28070;SDS011;15383;48.408;9.968;2023-11-19T18:37:41;2.60;;;1.77;;
28070;SDS011;15383;48.408;9.968;2023-11-19T18:40:07;6.25;;;1.90;;
28070;SDS011;15383;48.408;9.968;2023-11-19T18:42:34;3.08;;;1.80;;
28070;SDS011;15383;48.408;9.968;2023-11-19T18:45:01;3.35;;;1.90;;
28070;SDS011;15383;48.408;9.968;2023-11-19T18:47:29;3.60;;;2.17;;
28070;SDS011;15383;48.408;9.968;2023-11-19T18:49:55;2.45;;;2.00;;
28070;SDS011;15383;48.408;9.968;2023-11-19T18:52:20;2.38;;;1.90;;
28070;SDS011;15383;48.408;9.968;2023-11-19T18:54:46;3.13;;;1.73;;
28070;SDS011;15383;48.408;9.968;2023-11-19T18:57:11;4.65;;;2.17;;
28070;SDS011;15383;48.408;9.968;2023-11-19T18:59:37;2.53;;;1.85;;
28070;SDS011;15383;48.408;9.968;2023-11-19T19:02:03;3.05;;;2.17;;
28070;SDS011;15383;48.408;9.968;2023-11-19T19:04:29;4.72;;;2.00;;
28070;SDS011;15383;48.408;9.968;2023-11-19T19:06:54;3.63;;;1.85;;
28070;SDS011;15383;48.408;9.968;2023-11-19T19:09:20;9.02;;;1.88;;
28070;SDS011;15383;48.408;9.968;2023-11-19T19:11:46;3.42;;;2.42;;
28070;SDS011;15383;48.408;9.968;2023-11-19T19:14:13;4.25;;;1.98;;
28070;SDS011;15383;48.408;9.968;2023-11-19T19:16:41;2.42;;;1.60;;